sensor_id;sensor_type;location;lat;lon;timestamp;pressure;altitude;pressure_sealevel;temperature;humidity
3082;BME280;1551;51.046;7.010;2023-03-18T00:01:03;100235.25;;;12.39;85.71
3082;BME280;1551;51.046;7.010;2023-03-18T00:03:52;100230.91;;;12.41;85.41
3082;BME280;1551;51.046;7.010;2023-03-18T00:06:41;100231.88;;;12.37;85.81
3082;BME280;1551;51.046;7.010;2023-03-18T00:09:31;100199.69;;;12.26;86.22
3082;BME280;1551;51.046;7.010;2023-03-18T00:12:20;100229.97;;;12.46;86.39
3082;BME280;1551;51.046;7.010;2023-03-18T00:15:11;100234.16;;;12.48;86.00
3082;BME280;1551;51.046;7.010;2023-03-18T00:18:01;100237.47;;;12.53;86.48
3082;BME280;1551;51.046;7.010;2023-03-18T00:20:50;100244.25;;;12.56;86.43
3082;BME280;1551;51.046;7.010;2023-03-18T00:23:39;100226.78;;;12.36;86.19
3082;BME280;1551;51.046;7.010;2023-03-18T00:26:28;100242.72;;;12.49;86.87
3082;BME280;1551;51.046;7.010;2023-03-18T00:29:17;100244.44;;;12.48;86.82
3082;BME280;1551;51.046;7.010;2023-03-18T00:32:06;100248.66;;;12.51;86.79
3082;BME280;1551;51.046;7.010;2023-03-18T00:34:57;100247.69;;;12.55;86.41
3082;BME280;1551;51.046;7.010;2023-03-18T00:37:46;100243.41;;;12.55;86.75
3082;BME280;1551;51.046;7.010;2023-03-18T00:40:39;100233.19;;;12.54;87.08
3082;BME280;1551;51.046;7.010;2023-03-18T00:43:50;100226.41;;;12.50;86.95
3082;BME280;1551;51.046;7.010;2023-03-18T00:46:40;100216.97;;;12.52;87.50
3082;BME280;1551;51.046;7.010;2023-03-18T00:49:29;100227.19;;;12.53;87.61
3082;BME280;1551;51.046;7.010;2023-03-18T00:52:18;100225.56;;;12.51;87.13
3082;BME280;1551;51.046;7.010;2023-03-18T00:55:08;100228.19;;;12.48;87.46
3082;BME280;1551;51.046;7.010;2023-03-18T00:57:58;100240.88;;;12.54;87.02
3082;BME280;1551;51.046;7.010;2023-03-18T01:00:47;100247.66;;;12.56;87.44
3082;BME280;1551;51.046;7.010;2023-03-18T01:03:36;100237.41;;;12.55;87.14
3082;BME280;1551;51.046;7.010;2023-03-18T01:06:32;100229.81;;;12.52;87.07
3082;BME280;1551;51.046;7.010;2023-03-18T01:09:21;100225.56;;;12.51;87.51
3082;BME280;1551;51.046;7.010;2023-03-18T01:12:11;100232.25;;;12.56;87.65
3082;BME280;1551;51.046;7.010;2023-03-18T01:15:01;100230.50;;;12.58;87.65
3082;BME280;1551;51.046;7.010;2023-03-18T01:17:52;100237.31;;;12.59;87.54
3082;BME280;1551;51.046;7.010;2023-03-18T01:20:45;100241.63;;;12.57;87.67
3082;BME280;1551;51.046;7.010;2023-03-18T01:23:37;100223.75;;;12.54;88.05
3082;BME280;1551;51.046;7.010;2023-03-18T01:26:26;100220.09;;;12.63;88.19
3082;BME280;1551;51.046;7.010;2023-03-18T01:29:18;100217.53;;;12.63;88.44
3082;BME280;1551;51.046;7.010;2023-03-18T01:32:08;100227.03;;;12.59;87.67
3082;BME280;1551;51.046;7.010;2023-03-18T01:34:58;100232.38;;;12.52;88.15
3082;BME280;1551;51.046;7.010;2023-03-18T01:37:48;100238.44;;;12.48;88.85
3082;BME280;1551;51.046;7.010;2023-03-18T01:40:37;100236.78;;;12.47;88.82
3082;BME280;1551;51.046;7.010;2023-03-18T01:43:35;100237.41;;;12.55;88.91
3082;BME280;1551;51.046;7.010;2023-03-18T01:46:35;100240.94;;;12.51;88.49
3082;BME280;1551;51.046;7.010;2023-03-18T01:49:38;100231.50;;;12.53;89.38
3082;BME280;1551;51.046;7.010;2023-03-18T01:52:30;100217.09;;;12.47;88.85
3082;BME280;1551;51.046;7.010;2023-03-18T01:55:24;100218.66;;;12.53;89.02
3082;BME280;1551;51.046;7.010;2023-03-18T01:58:30;100213.38;;;12.59;89.05
3082;BME280;1551;51.046;7.010;2023-03-18T02:01:31;100208.25;;;12.59;88.92
3082;BME280;1551;51.046;7.010;2023-03-18T02:04:30;100198.00;;;12.57;89.07
3082;BME280;1551;51.046;7.010;2023-03-18T02:07:31;100198.09;;;12.54;89.48
3082;BME280;1551;51.046;7.010;2023-03-18T02:10:27;100194.69;;;12.54;89.48
3082;BME280;1551;51.046;7.010;2023-03-18T02:13:18;100199.84;;;12.52;89.39
3082;BME280;1551;51.046;7.010;2023-03-18T02:16:13;100203.41;;;12.47;89.46
3082;BME280;1551;51.046;7.010;2023-03-18T02:19:37;100217.25;;;12.41;89.72
3082;BME280;1551;51.046;7.010;2023-03-18T02:22:30;100219.97;;;12.35;90.05
3082;BME280;1551;51.046;7.010;2023-03-18T02:28:21;100205.72;;;12.23;90.25
3082;BME280;1551;51.046;7.010;2023-03-18T02:31:14;100193.94;;;12.16;90.38
3082;BME280;1551;51.046;7.010;2023-03-18T02:34:06;100207.63;;;12.15;90.72
3082;BME280;1551;51.046;7.010;2023-03-18T02:36:58;100200.91;;;12.10;90.47
3082;BME280;1551;51.046;7.010;2023-03-18T02:39:47;100205.28;;;12.06;90.94
3082;BME280;1551;51.046;7.010;2023-03-18T02:42:37;100202.72;;;12.06;91.11
3082;BME280;1551;51.046;7.010;2023-03-18T02:45:37;100201.88;;;12.06;91.16
3082;BME280;1551;51.046;7.010;2023-03-18T02:48:38;100205.34;;;12.03;91.36
3082;BME280;1551;51.046;7.010;2023-03-18T02:51:28;100222.50;;;12.01;91.22
3082;BME280;1551;51.046;7.010;2023-03-18T02:54:23;100212.41;;;11.94;91.77
3082;BME280;1551;51.046;7.010;2023-03-18T02:57:12;100220.88;;;11.97;91.89
3082;BME280;1551;51.046;7.010;2023-03-18T03:00:04;100221.81;;;11.95;91.73
3082;BME280;1551;51.046;7.010;2023-03-18T03:02:54;100226.94;;;11.95;92.21
3082;BME280;1551;51.046;7.010;2023-03-18T03:05:43;100225.34;;;11.89;91.97
3082;BME280;1551;51.046;7.010;2023-03-18T03:08:32;100228.81;;;11.87;91.86
3082;BME280;1551;51.046;7.010;2023-03-18T03:11:21;100240.88;;;11.83;92.18
3082;BME280;1551;51.046;7.010;2023-03-18T03:14:15;100236.66;;;11.81;91.71
3082;BME280;1551;51.046;7.010;2023-03-18T03:17:06;100243.66;;;11.72;91.91
3082;BME280;1551;51.046;7.010;2023-03-18T03:19:54;100245.41;;;11.70;92.03
3082;BME280;1551;51.046;7.010;2023-03-18T03:22:44;100245.47;;;11.67;91.95
3082;BME280;1551;51.046;7.010;2023-03-18T03:25:34;100257.50;;;11.64;92.76
3082;BME280;1551;51.046;7.010;2023-03-18T03:28:24;100254.13;;;11.62;92.86
3082;BME280;1551;51.046;7.010;2023-03-18T03:31:15;100254.97;;;11.62;92.92
3082;BME280;1551;51.046;7.010;2023-03-18T03:34:05;100251.59;;;11.60;93.18
3082;BME280;1551;51.046;7.010;2023-03-18T03:36:54;100246.59;;;11.54;92.58
3082;BME280;1551;51.046;7.010;2023-03-18T03:39:46;100251.75;;;11.53;93.18
3082;BME280;1551;51.046;7.010;2023-03-18T03:42:36;100261.16;;;11.52;93.26
3082;BME280;1551;51.046;7.010;2023-03-18T03:45:26;100255.31;;;11.46;92.74
3082;BME280;1551;51.046;7.010;2023-03-18T03:48:16;100257.06;;;11.44;93.28
3082;BME280;1551;51.046;7.010;2023-03-18T03:51:05;100264.78;;;11.42;93.84
3082;BME280;1551;51.046;7.010;2023-03-18T03:53:55;100269.91;;;11.42;93.25
3082;BME280;1551;51.046;7.010;2023-03-18T03:56:44;100263.97;;;11.40;93.64
3082;BME280;1551;51.046;7.010;2023-03-18T03:59:33;100270.88;;;11.37;93.83
3082;BME280;1551;51.046;7.010;2023-03-18T04:02:35;100263.28;;;11.32;93.70
3082;BME280;1551;51.046;7.010;2023-03-18T04:05:25;100276.91;;;11.33;93.85
3082;BME280;1551;51.046;7.010;2023-03-18T04:08:15;100279.56;;;11.28;93.67
3082;BME280;1551;51.046;7.010;2023-03-18T04:11:05;100277.09;;;11.25;94.16
3082;BME280;1551;51.046;7.010;2023-03-18T04:13:54;100277.97;;;11.24;94.31
3082;BME280;1551;51.046;7.010;2023-03-18T04:16:44;100277.16;;;11.22;94.46
3082;BME280;1551;51.046;7.010;2023-03-18T04:19:33;100277.16;;;11.22;94.68
3082;BME280;1551;51.046;7.010;2023-03-18T04:22:22;100285.69;;;11.23;94.08
3082;BME280;1551;51.046;7.010;2023-03-18T04:25:12;100287.41;;;11.21;94.71
3082;BME280;1551;51.046;7.010;2023-03-18T04:28:03;100293.47;;;11.17;94.47
3082;BME280;1551;51.046;7.010;2023-03-18T04:30:51;100302.91;;;11.15;94.61
3082;BME280;1551;51.046;7.010;2023-03-18T04:33:41;100300.34;;;11.15;94.77
3082;BME280;1551;51.046;7.010;2023-03-18T04:36:32;100311.44;;;11.15;94.48
3082;BME280;1551;51.046;7.010;2023-03-18T04:39:21;100304.66;;;11.13;94.33
3082;BME280;1551;51.046;7.010;2023-03-18T04:42:11;100302.97;;;11.10;94.60
3082;BME280;1551;51.046;7.010;2023-03-18T04:45:01;100314.16;;;11.06;94.16
3082;BME280;1551;51.046;7.010;2023-03-18T04:47:50;100306.47;;;11.06;94.99
3082;BME280;1551;51.046;7.010;2023-03-18T04:50:40;100310.72;;;11.09;94.85
3082;BME280;1551;51.046;7.010;2023-03-18T04:53:34;100307.16;;;11.14;94.20
3082;BME280;1551;51.046;7.010;2023-03-18T04:56:23;100315.66;;;11.16;94.06
3082;BME280;1551;51.046;7.010;2023-03-18T04:59:15;100313.94;;;11.17;94.08
3082;BME280;1551;51.046;7.010;2023-03-18T05:02:06;100309.78;;;11.13;94.19
3082;BME280;1551;51.046;7.010;2023-03-18T05:04:58;100306.50;;;11.04;94.06
3082;BME280;1551;51.046;7.010;2023-03-18T05:07:49;100311.66;;;11.03;94.68
3082;BME280;1551;51.046;7.010;2023-03-18T05:10:41;100303.16;;;10.99;94.61
3082;BME280;1551;51.046;7.010;2023-03-18T05:13:33;100304.88;;;11.00;95.08
3082;BME280;1551;51.046;7.010;2023-03-18T05:16:22;100300.59;;;10.99;95.16
3082;BME280;1551;51.046;7.010;2023-03-18T05:19:12;100302.44;;;10.94;95.33
3082;BME280;1551;51.046;7.010;2023-03-18T05:22:10;100312.66;;;10.94;95.03
3082;BME280;1551;51.046;7.010;2023-03-18T05:24:59;100316.13;;;10.90;95.52
3082;BME280;1551;51.046;7.010;2023-03-18T05:27:50;100312.00;;;10.83;95.65
3082;BME280;1551;51.046;7.010;2023-03-18T05:30:49;100317.03;;;10.88;95.15
3082;BME280;1551;51.046;7.010;2023-03-18T05:33:39;100317.88;;;10.88;95.39
3082;BME280;1551;51.046;7.010;2023-03-18T05:36:30;100323.81;;;10.92;95.70
3082;BME280;1551;51.046;7.010;2023-03-18T05:39:24;100321.16;;;10.95;95.11
3082;BME280;1551;51.046;7.010;2023-03-18T05:42:14;100324.56;;;10.97;95.31
3082;BME280;1551;51.046;7.010;2023-03-18T05:45:05;100323.72;;;10.96;95.18
3082;BME280;1551;51.046;7.010;2023-03-18T05:47:56;100328.78;;;10.99;95.42
3082;BME280;1551;51.046;7.010;2023-03-18T05:50:46;100331.28;;;11.02;95.04
3082;BME280;1551;51.046;7.010;2023-03-18T05:53:40;100342.25;;;11.09;95.02
3082;BME280;1551;51.046;7.010;2023-03-18T05:56:44;100342.84;;;11.23;95.19
3082;BME280;1551;51.046;7.010;2023-03-18T05:59:35;100353.00;;;11.28;94.14
3082;BME280;1551;51.046;7.010;2023-03-18T06:02:24;100347.88;;;11.29;94.22
3082;BME280;1551;51.046;7.010;2023-03-18T06:05:15;100353.00;;;11.29;93.40
3082;BME280;1551;51.046;7.010;2023-03-18T06:08:03;100347.06;;;11.27;93.52
3082;BME280;1551;51.046;7.010;2023-03-18T06:10:52;100358.97;;;11.30;93.32
3082;BME280;1551;51.046;7.010;2023-03-18T06:13:43;100355.56;;;11.29;92.67
3082;BME280;1551;51.046;7.010;2023-03-18T06:16:33;100365.81;;;11.28;92.39
3082;BME280;1551;51.046;7.010;2023-03-18T06:19:23;100363.94;;;11.39;93.33
3082;BME280;1551;51.046;7.010;2023-03-18T06:22:14;100360.28;;;11.50;92.41
3082;BME280;1551;51.046;7.010;2023-03-18T06:25:05;100356.53;;;11.68;92.87
3082;BME280;1551;51.046;7.010;2023-03-18T06:27:59;100362.13;;;11.88;92.19
3082;BME280;1551;51.046;7.010;2023-03-18T06:30:54;100372.06;;;12.03;91.00
3082;BME280;1551;51.046;7.010;2023-03-18T06:33:45;100365.63;;;12.24;90.76
3082;BME280;1551;51.046;7.010;2023-03-18T06:36:37;100370.38;;;12.42;89.30
3082;BME280;1551;51.046;7.010;2023-03-18T06:39:30;100373.28;;;12.62;88.67
3082;BME280;1551;51.046;7.010;2023-03-18T06:42:21;100368.56;;;12.81;87.17
3082;BME280;1551;51.046;7.010;2023-03-18T06:45:30;100369.56;;;13.10;86.08
3082;BME280;1551;51.046;7.010;2023-03-18T06:48:26;100373.44;;;13.27;85.10
3082;BME280;1551;51.046;7.010;2023-03-18T06:51:20;100369.66;;;13.40;83.64
3082;BME280;1551;51.046;7.010;2023-03-18T06:54:11;100376.19;;;13.51;82.81
3082;BME280;1551;51.046;7.010;2023-03-18T06:57:01;100381.09;;;13.60;82.07
3082;BME280;1551;51.046;7.010;2023-03-18T06:59:50;100377.59;;;13.63;81.10
3082;BME280;1551;51.046;7.010;2023-03-18T07:02:40;100377.44;;;13.69;81.07
3082;BME280;1551;51.046;7.010;2023-03-18T07:05:32;100382.34;;;13.76;80.53
3082;BME280;1551;51.046;7.010;2023-03-18T07:08:22;100382.25;;;13.79;79.39
3082;BME280;1551;51.046;7.010;2023-03-18T07:11:11;100381.81;;;13.65;79.52
3082;BME280;1551;51.046;7.010;2023-03-18T07:14:03;100383.84;;;13.54;79.52
3082;BME280;1551;51.046;7.010;2023-03-18T07:16:55;100391.00;;;13.42;79.30
3082;BME280;1551;51.046;7.010;2023-03-18T07:19:44;100391.31;;;13.31;80.28
3082;BME280;1551;51.046;7.010;2023-03-18T07:22:33;100391.56;;;13.22;80.64
3082;BME280;1551;51.046;7.010;2023-03-18T07:25:23;100397.81;;;13.12;80.73
3082;BME280;1551;51.046;7.010;2023-03-18T07:28:12;100393.41;;;13.16;81.27
3082;BME280;1551;51.046;7.010;2023-03-18T07:31:02;100400.19;;;13.20;81.11
3082;BME280;1551;51.046;7.010;2023-03-18T07:33:51;100401.06;;;13.19;81.29
3082;BME280;1551;51.046;7.010;2023-03-18T07:36:40;100403.63;;;13.19;81.14
3082;BME280;1551;51.046;7.010;2023-03-18T07:39:30;100412.31;;;13.13;81.38
3082;BME280;1551;51.046;7.010;2023-03-18T07:42:20;100403.56;;;13.22;81.17
3082;BME280;1551;51.046;7.010;2023-03-18T07:45:09;100412.88;;;13.26;81.44
3082;BME280;1551;51.046;7.010;2023-03-18T07:47:58;100413.34;;;13.40;81.14
3082;BME280;1551;51.046;7.010;2023-03-18T07:50:47;100423.25;;;13.55;80.75
3082;BME280;1551;51.046;7.010;2023-03-18T07:53:36;100419.66;;;13.60;80.06
3082;BME280;1551;51.046;7.010;2023-03-18T07:56:26;100432.72;;;13.85;79.91
3082;BME280;1551;51.046;7.010;2023-03-18T07:59:15;100429.34;;;14.12;78.94
3082;BME280;1551;51.046;7.010;2023-03-18T08:02:04;100439.78;;;14.38;78.13
3082;BME280;1551;51.046;7.010;2023-03-18T08:04:55;100439.19;;;14.58;76.73
3082;BME280;1551;51.046;7.010;2023-03-18T08:07:44;100442.91;;;14.76;76.33
3082;BME280;1551;51.046;7.010;2023-03-18T08:10:33;100438.88;;;14.95;74.86
3082;BME280;1551;51.046;7.010;2023-03-18T08:13:23;100446.47;;;14.99;74.26
3082;BME280;1551;51.046;7.010;2023-03-18T08:16:13;100451.25;;;15.10;73.90
3082;BME280;1551;51.046;7.010;2023-03-18T08:19:02;100452.66;;;15.46;72.50
3082;BME280;1551;51.046;7.010;2023-03-18T08:21:51;100449.47;;;15.88;71.59
3082;BME280;1551;51.046;7.010;2023-03-18T08:24:41;100458.91;;;15.89;69.79
3082;BME280;1551;51.046;7.010;2023-03-18T08:27:30;100460.91;;;16.05;69.98
3082;BME280;1551;51.046;7.010;2023-03-18T08:30:19;100457.38;;;16.31;69.23
3082;BME280;1551;51.046;7.010;2023-03-18T08:33:09;100459.00;;;16.57;68.31
3082;BME280;1551;51.046;7.010;2023-03-18T08:35:58;100471.44;;;16.90;66.97
3082;BME280;1551;51.046;7.010;2023-03-18T08:38:47;100460.97;;;17.15;66.16
3082;BME280;1551;51.046;7.010;2023-03-18T08:41:37;100458.28;;;17.38;64.83
3082;BME280;1551;51.046;7.010;2023-03-18T08:44:26;100461.13;;;17.32;63.99
3082;BME280;1551;51.046;7.010;2023-03-18T08:47:15;100464.00;;;17.46;63.59
3082;BME280;1551;51.046;7.010;2023-03-18T08:50:04;100470.88;;;17.67;62.83
3082;BME280;1551;51.046;7.010;2023-03-18T08:52:55;100463.59;;;17.96;61.82
3082;BME280;1551;51.046;7.010;2023-03-18T08:55:47;100470.25;;;18.01;60.77
3082;BME280;1551;51.046;7.010;2023-03-18T08:58:36;100472.59;;;17.87;61.40
3082;BME280;1551;51.046;7.010;2023-03-18T09:01:25;100471.13;;;17.81;61.07
3082;BME280;1551;51.046;7.010;2023-03-18T09:04:14;100467.03;;;17.76;61.69
3082;BME280;1551;51.046;7.010;2023-03-18T09:07:03;100464.16;;;18.02;61.09
3082;BME280;1551;51.046;7.010;2023-03-18T09:09:52;100457.28;;;18.40;60.56
3082;BME280;1551;51.046;7.010;2023-03-18T09:12:42;100464.63;;;18.68;59.81
3082;BME280;1551;51.046;7.010;2023-03-18T09:15:31;100464.56;;;18.69;58.65
3082;BME280;1551;51.046;7.010;2023-03-18T09:18:20;100468.88;;;18.69;58.35
3082;BME280;1551;51.046;7.010;2023-03-18T09:21:12;100465.41;;;18.70;58.30
3082;BME280;1551;51.046;7.010;2023-03-18T09:24:02;100449.72;;;18.73;57.44
3082;BME280;1551;51.046;7.010;2023-03-18T09:26:51;100460.81;;;18.93;57.76
3082;BME280;1551;51.046;7.010;2023-03-18T09:29:40;100455.34;;;19.16;56.61
3082;BME280;1551;51.046;7.010;2023-03-18T09:32:29;100453.78;;;18.95;56.49
3082;BME280;1551;51.046;7.010;2023-03-18T09:35:19;100450.94;;;18.83;56.96
3082;BME280;1551;51.046;7.010;2023-03-18T09:38:14;100457.25;;;19.13;56.56
3082;BME280;1551;51.046;7.010;2023-03-18T09:41:17;100458.78;;;19.17;56.47
3082;BME280;1551;51.046;7.010;2023-03-18T09:50:54;100454.84;;;19.94;53.98
3082;BME280;1551;51.046;7.010;2023-03-18T09:53:50;100472.25;;;20.42;52.27
3082;BME280;1551;51.046;7.010;2023-03-18T09:56:42;100475.56;;;20.28;51.46
3082;BME280;1551;51.046;7.010;2023-03-18T09:59:38;100465.91;;;20.77;50.78
3082;BME280;1551;51.046;7.010;2023-03-18T10:03:05;100470.59;;;21.02;49.62
3082;BME280;1551;51.046;7.010;2023-03-18T10:05:59;100471.38;;;20.88;49.37
3082;BME280;1551;51.046;7.010;2023-03-18T10:11:58;100458.50;;;22.04;47.32
3082;BME280;1551;51.046;7.010;2023-03-18T10:15:43;100468.63;;;21.95;46.91
3082;BME280;1551;51.046;7.010;2023-03-18T10:18:35;100474.31;;;22.84;45.80
3082;BME280;1551;51.046;7.010;2023-03-18T10:22:00;100471.59;;;23.12;44.61
3082;BME280;1551;51.046;7.010;2023-03-18T10:31:35;100474.56;;;24.35;41.60
3082;BME280;1551;51.046;7.010;2023-03-18T10:34:32;100470.94;;;25.78;39.19
3082;BME280;1551;51.046;7.010;2023-03-18T10:37:37;100468.00;;;26.27;37.83
3082;BME280;1551;51.046;7.010;2023-03-18T10:40:37;100468.81;;;25.83;37.63
3082;BME280;1551;51.046;7.010;2023-03-18T10:43:31;100462.97;;;26.02;37.33
3082;BME280;1551;51.046;7.010;2023-03-18T10:46:22;100474.00;;;26.83;36.18
3082;BME280;1551;51.046;7.010;2023-03-18T10:49:17;100463.16;;;27.29;35.71
3082;BME280;1551;51.046;7.010;2023-03-18T10:52:16;100464.09;;;27.60;34.92
3082;BME280;1551;51.046;7.010;2023-03-18T10:55:15;100467.44;;;27.82;34.19
3082;BME280;1551;51.046;7.010;2023-03-18T10:58:16;100461.28;;;27.72;34.49
3082;BME280;1551;51.046;7.010;2023-03-18T11:01:08;100462.97;;;27.83;34.61
3082;BME280;1551;51.046;7.010;2023-03-18T11:04:00;100466.13;;;28.37;33.08
3082;BME280;1551;51.046;7.010;2023-03-18T11:07:38;100474.28;;;28.25;32.31
3082;BME280;1551;51.046;7.010;2023-03-18T11:10:13;100471.31;;;28.58;32.06
3082;BME280;1551;51.046;7.010;2023-03-18T11:13:03;100469.75;;;28.86;32.12
3082;BME280;1551;51.046;7.010;2023-03-18T11:15:54;100478.09;;;28.91;30.90
3082;BME280;1551;51.046;7.010;2023-03-18T11:18:45;100477.09;;;28.42;32.12
3082;BME280;1551;51.046;7.010;2023-03-18T11:21:35;100474.34;;;29.41;31.01
3082;BME280;1551;51.046;7.010;2023-03-18T11:24:26;100483.00;;;30.26;29.71
3082;BME280;1551;51.046;7.010;2023-03-18T11:27:42;100459.81;;;29.74;29.81
3082;BME280;1551;51.046;7.010;2023-03-18T11:30:43;100475.50;;;29.85;29.92
3082;BME280;1551;51.046;7.010;2023-03-18T11:33:33;100486.88;;;30.22;28.65
3082;BME280;1551;51.046;7.010;2023-03-18T11:36:26;100480.59;;;28.52;30.57
3082;BME280;1551;51.046;7.010;2023-03-18T11:39:16;100477.38;;;28.98;30.73
3082;BME280;1551;51.046;7.010;2023-03-18T11:42:18;100477.75;;;28.65;30.57
3082;BME280;1551;51.046;7.010;2023-03-18T11:45:29;100472.50;;;28.84;30.44
3082;BME280;1551;51.046;7.010;2023-03-18T11:48:29;100481.84;;;27.26;32.56
3082;BME280;1551;51.046;7.010;2023-03-18T11:51:33;100471.03;;;26.66;34.18
3082;BME280;1551;51.046;7.010;2023-03-18T12:07:32;100439.81;;;22.67;40.40
3082;BME280;1551;51.046;7.010;2023-03-18T12:10:36;100450.25;;;22.67;40.15
3082;BME280;1551;51.046;7.010;2023-03-18T12:13:34;100450.28;;;24.57;37.09
3082;BME280;1551;51.046;7.010;2023-03-18T12:19:39;100452.88;;;26.74;33.38
3082;BME280;1551;51.046;7.010;2023-03-18T12:22:39;100457.44;;;26.49;33.28
3082;BME280;1551;51.046;7.010;2023-03-18T12:25:50;100453.19;;;24.78;35.49
3082;BME280;1551;51.046;7.010;2023-03-18T12:29:08;100443.28;;;24.94;36.19
3082;BME280;1551;51.046;7.010;2023-03-18T12:41:44;100435.66;;;25.82;34.74
3082;BME280;1551;51.046;7.010;2023-03-18T12:44:59;100436.84;;;26.34;33.51
3082;BME280;1551;51.046;7.010;2023-03-18T12:47:58;100431.13;;;27.35;32.16
3082;BME280;1551;51.046;7.010;2023-03-18T12:50:55;100424.59;;;27.50;31.72
3082;BME280;1551;51.046;7.010;2023-03-18T12:53:53;100425.06;;;28.75;30.26
3082;BME280;1551;51.046;7.010;2023-03-18T12:56:45;100422.00;;;29.08;29.06
3082;BME280;1551;51.046;7.010;2023-03-18T12:59:50;100411.41;;;28.31;30.31
3082;BME280;1551;51.046;7.010;2023-03-18T13:03:03;100403.03;;;28.76;29.98
3082;BME280;1551;51.046;7.010;2023-03-18T13:06:07;100401.75;;;26.89;31.54
3082;BME280;1551;51.046;7.010;2023-03-18T13:09:02;100401.13;;;25.32;34.69
3082;BME280;1551;51.046;7.010;2023-03-18T13:14:59;100394.84;;;24.16;36.14
3082;BME280;1551;51.046;7.010;2023-03-18T13:17:50;100384.44;;;22.88;38.20
3082;BME280;1551;51.046;7.010;2023-03-18T13:20:43;100394.25;;;22.17;40.04
3082;BME280;1551;51.046;7.010;2023-03-18T13:30:33;100400.19;;;20.89;44.18
3082;BME280;1551;51.046;7.010;2023-03-18T13:43:18;100390.44;;;19.68;51.03
3082;BME280;1551;51.046;7.010;2023-03-18T13:46:22;100389.84;;;19.63;52.63
3082;BME280;1551;51.046;7.010;2023-03-18T13:49:17;100395.13;;;19.61;52.20
3082;BME280;1551;51.046;7.010;2023-03-18T13:52:25;100382.16;;;19.44;52.80
3082;BME280;1551;51.046;7.010;2023-03-18T13:58:45;100389.25;;;19.23;53.62
3082;BME280;1551;51.046;7.010;2023-03-18T14:01:47;100393.38;;;18.93;53.79
3082;BME280;1551;51.046;7.010;2023-03-18T14:04:45;100391.63;;;18.94;54.59
3082;BME280;1551;51.046;7.010;2023-03-18T14:07:45;100398.47;;;18.95;55.14
3082;BME280;1551;51.046;7.010;2023-03-18T14:10:35;100385.50;;;18.78;56.30
3082;BME280;1551;51.046;7.010;2023-03-18T14:13:26;100380.91;;;18.66;58.41
3082;BME280;1551;51.046;7.010;2023-03-18T14:16:17;100382.34;;;18.35;59.69
3082;BME280;1551;51.046;7.010;2023-03-18T14:19:18;100385.28;;;18.28;59.94
3082;BME280;1551;51.046;7.010;2023-03-18T14:22:16;100388.13;;;18.03;60.56
3082;BME280;1551;51.046;7.010;2023-03-18T14:30:55;100401.22;;;17.81;62.77
3082;BME280;1551;51.046;7.010;2023-03-18T14:33:59;100383.66;;;17.88;63.04
3082;BME280;1551;51.046;7.010;2023-03-18T14:39:43;100384.84;;;18.00;64.49
3082;BME280;1551;51.046;7.010;2023-03-18T14:42:57;100385.41;;;18.06;64.89
3082;BME280;1551;51.046;7.010;2023-03-18T14:45:47;100345.16;;;17.99;64.68
3082;BME280;1551;51.046;7.010;2023-03-18T14:48:39;100382.56;;;18.67;63.43
3082;BME280;1551;51.046;7.010;2023-03-18T14:51:29;100384.44;;;20.31;58.74
3082;BME280;1551;51.046;7.010;2023-03-18T14:54:22;100382.53;;;21.82;54.72
3082;BME280;1551;51.046;7.010;2023-03-18T14:57:12;100368.31;;;23.34;49.29
3082;BME280;1551;51.046;7.010;2023-03-18T15:00:02;100373.72;;;22.93;48.82
3082;BME280;1551;51.046;7.010;2023-03-18T15:03:15;100367.47;;;23.08;48.30
3082;BME280;1551;51.046;7.010;2023-03-18T15:06:16;100365.72;;;22.28;49.39
3082;BME280;1551;51.046;7.010;2023-03-18T15:09:08;100367.00;;;21.95;50.07
3082;BME280;1551;51.046;7.010;2023-03-18T15:11:57;100365.28;;;23.02;47.53
3082;BME280;1551;51.046;7.010;2023-03-18T15:14:48;100371.44;;;23.13;47.37
3082;BME280;1551;51.046;7.010;2023-03-18T15:17:38;100367.78;;;23.28;46.49
3082;BME280;1551;51.046;7.010;2023-03-18T15:20:27;100370.53;;;23.52;46.64
3082;BME280;1551;51.046;7.010;2023-03-18T15:23:24;100369.59;;;23.66;46.18
3082;BME280;1551;51.046;7.010;2023-03-18T15:26:32;100365.88;;;23.05;46.56
3082;BME280;1551;51.046;7.010;2023-03-18T15:35:22;100357.03;;;22.15;48.05
3082;BME280;1551;51.046;7.010;2023-03-18T15:38:14;100352.31;;;21.65;48.33
3082;BME280;1551;51.046;7.010;2023-03-18T15:41:10;100351.50;;;21.07;49.54
3082;BME280;1551;51.046;7.010;2023-03-18T15:44:12;100356.94;;;20.73;50.23
3082;BME280;1551;51.046;7.010;2023-03-18T15:47:13;100344.78;;;20.73;50.11
3082;BME280;1551;51.046;7.010;2023-03-18T15:53:20;100355.63;;;20.19;51.01
3082;BME280;1551;51.046;7.010;2023-03-18T15:56:27;100357.13;;;20.07;51.60
3082;BME280;1551;51.046;7.010;2023-03-18T15:59:23;100345.59;;;19.97;51.59
3082;BME280;1551;51.046;7.010;2023-03-18T16:02:14;100359.31;;;19.99;52.00
3082;BME280;1551;51.046;7.010;2023-03-18T16:05:14;100354.19;;;19.82;52.08
3082;BME280;1551;51.046;7.010;2023-03-18T16:08:08;100345.16;;;19.89;51.91
3082;BME280;1551;51.046;7.010;2023-03-18T16:11:01;100353.88;;;19.88;51.74
3082;BME280;1551;51.046;7.010;2023-03-18T16:13:51;100354.88;;;19.85;52.32
3082;BME280;1551;51.046;7.010;2023-03-18T16:16:40;100351.84;;;19.77;52.23
3082;BME280;1551;51.046;7.010;2023-03-18T16:19:30;100341.09;;;19.68;52.49
3082;BME280;1551;51.046;7.010;2023-03-18T16:22:19;100354.94;;;19.68;52.45
3082;BME280;1551;51.046;7.010;2023-03-18T16:25:09;100357.28;;;19.40;52.46
3082;BME280;1551;51.046;7.010;2023-03-18T16:27:59;100359.47;;;19.31;52.47
3082;BME280;1551;51.046;7.010;2023-03-18T16:30:50;100351.09;;;19.08;53.44
3082;BME280;1551;51.046;7.010;2023-03-18T16:33:43;100356.22;;;19.10;54.17
3082;BME280;1551;51.046;7.010;2023-03-18T16:36:33;100350.75;;;18.99;53.97
3082;BME280;1551;51.046;7.010;2023-03-18T16:39:25;100350.34;;;18.89;54.23
3082;BME280;1551;51.046;7.010;2023-03-18T16:42:16;100353.78;;;18.73;54.12
3082;BME280;1551;51.046;7.010;2023-03-18T16:45:08;100354.72;;;18.53;54.06
3082;BME280;1551;51.046;7.010;2023-03-18T16:48:03;100370.13;;;18.37;53.23
3082;BME280;1551;51.046;7.010;2023-03-18T16:50:54;100371.56;;;18.26;53.41
3082;BME280;1551;51.046;7.010;2023-03-18T16:53:43;100369.44;;;18.15;52.92
3082;BME280;1551;51.046;7.010;2023-03-18T16:56:32;100374.19;;;18.06;52.71